Hauptseite
METAR-TAF:

METAR-TAF

Flughäfen :

Flughafen Parma

Parma, Italien

Breite: 44-49-17N, Länge: 010-17-41E, Höhe: 50 m

Beobachtung

Neuester Wetterbericht von vor 1 Stunde und 25 Minuten, um 19:50 UTC
Wind 3 kt aus Süd/Südwest
Temperatur -3°C
Luftfeuchtigkeit 86%
Luftdruck 1021 hPa
Sichtweite 10 km oder mehr
keine Wolken unter 1500 m und keine Kumulonimbus oder Gewitterwolken

METAR: LIMP 151950Z 21003KT CAVOK M03/M05 Q1021

Zeit: 22:15 (21:15 UTC)

Prognose

Neuester Wetterbericht von vor 4 Stunden und 15 Minuten, um 17:00 UTC
Gültige Prognose vom 15 um 18 UTC bis 16 um 18 UTC
Wind 5 kt aus unterschiedlichen Richtungen
Sichtweite 10 km oder mehr
keine Wolken unter 1500 m und keine Kumulonimbus oder Gewitterwolken

TAF: LIMP 151700Z 1518/1618 VRB05KT CAVOK

Wetterbeobachtungen und Prognosen von mehr als 4000 Flughäfen (METAR und TAF Bericht).

Die verfügbaren Stationen werden durch gelbe und rote Markierungen auf der Karte dargestellt.

Führen Sie die Maus auf sie, um den Namen der Station zu sehen.

Darauf klicken, um die Beobachtung von Wetterbeobachtungen und Prognosen zu sehen.

Um die Karte zu ändern : klicken Sie auf den grünen Tasten mit einem schwarzen Kreuz Zum Vergrößern, auf den grünen Button mit einem Gedankenstrich zu verkleinern, oder auf die grünen Pfeile für benachbarte Karten.


METAR-TAF: